Time;durP1;ratioP1;P1;durP2;ratioP2;P2;SDS_P1;SDS_P2;PMS_P1;PMS_P2;Temp;Humidity;BMP_temperature;BMP_pressure;BME280_temperature;BME280_humidity;BME280_pressure;Samples;Min_cycle;Max_cycle;Signal;HPM_P1;HPM_P2
2021/06/04 00:01:51;;;;;;;4.30;3.22;;;;;;;;;;5022955;28;20095;-48
2021/06/04 00:04:18;;;;;;;4.78;3.22;;;;;;;;;;5028017;28;20021;-49
2021/06/04 00:06:44;;;;;;;4.50;3.40;;;;;;;;;;5023687;28;20021;-48
2021/06/04 00:09:11;;;;;;;5.07;2.92;;;;;;;;;;5029286;28;20025;-49
2021/06/04 00:11:40;;;;;;;5.70;3.50;;;;;;;;;;5032489;28;20021;-47
2021/06/04 00:14:09;;;;;;;4.60;2.75;;;;;;;;;;5018730;28;20155;-47
2021/06/04 00:16:37;;;;;;;4.38;3.03;;;;;;;;;;5017961;28;20025;-47
2021/06/04 00:19:07;;;;;;;5.35;3.13;;;;;;;;;;5032368;28;20048;-47
2021/06/04 00:21:35;;;;;;;3.95;2.85;;;;;;;;;;5032946;28;20029;-47
2021/06/04 00:24:01;;;;;;;5.80;3.88;;;;;;;;;;5019024;28;20101;-50
2021/06/04 00:26:28;;;;;;;5.63;3.03;;;;;;;;;;5019611;28;20065;-48
2021/06/04 00:28:54;;;;;;;3.90;3.00;;;;;;;;;;5019350;28;20497;-50
2021/06/04 00:31:21;;;;;;;6.43;3.75;;;;;;;;;;5024401;28;20081;-48
2021/06/04 00:33:47;;;;;;;8.05;3.53;;;;;;;;;;5007492;28;20041;-49
2021/06/04 00:36:13;;;;;;;4.82;3.15;;;;;;;;;;5020394;28;20029;-49
2021/06/04 00:38:39;;;;;;;3.72;3.20;;;;;;;;;;5018739;28;20346;-48
2021/06/04 00:41:08;;;;;;;4.90;3.38;;;;;;;;;;5026600;28;20050;-51
2021/06/04 00:43:34;;;;;;;6.10;3.45;;;;;;;;;;5021809;28;20112;-49
2021/06/04 00:46:02;;;;;;;10.20;3.55;;;;;;;;;;5018775;28;20033;-47
2021/06/04 00:48:28;;;;;;;8.05;3.20;;;;;;;;;;5026480;28;20033;-47
2021/06/04 00:51:10;;;;;;;8.18;3.13;;;;;;;;;;5032497;28;20037;-47
2021/06/04 00:53:37;;;;;;;5.25;3.38;;;;;;;;;;5020367;28;20397;-47
2021/06/04 00:56:04;;;;;;;4.45;3.45;;;;;;;;;;5024855;28;20527;-48
2021/06/04 00:58:36;;;;;;;5.90;3.20;;;;;;;;;;5023584;28;20532;-47
2021/06/04 01:01:03;;;;;;;4.45;2.90;;;;;;;;;;5026811;28;20030;-47
2021/06/04 01:03:31;;;;;;;5.43;3.78;;;;;;;;;;5016045;28;20128;-48
2021/06/04 01:06:06;;;;;;;6.93;3.55;;;;;;;;;;5031870;28;20030;-48
2021/06/04 01:08:42;;;;;;;4.68;3.38;;;;;;;;;;5020595;28;20497;-48
2021/06/04 01:11:12;;;;;;;7.75;3.58;;;;;;;;;;5032399;28;20503;-48
2021/06/04 01:14:01;;;;;;;4.22;2.75;;;;;;;;;;5023753;28;20108;-47
2021/06/04 01:16:34;;;;;;;4.00;2.72;;;;;;;;;;5019524;28;20527;-47
2021/06/04 01:19:17;;;;;;;5.90;3.20;;;;;;;;;;5011846;28;20033;-47
2021/06/04 01:21:51;;;;;;;4.32;3.08;;;;;;;;;;5016033;28;20068;-47
2021/06/04 01:24:38;;;;;;;4.97;3.45;;;;;;;;;;5028947;28;20029;-48
2021/06/04 01:27:07;;;;;;;4.78;3.20;;;;;;;;;;5027091;28;20515;-47
2021/06/04 01:29:36;;;;;;;5.65;3.33;;;;;;;;;;5024208;28;20018;-48
2021/06/04 01:32:10;;;;;;;6.90;3.17;;;;;;;;;;5018113;28;20049;-48
2021/06/04 01:34:38;;;;;;;4.40;3.08;;;;;;;;;;5009645;28;20041;-47
2021/06/04 01:37:04;;;;;;;4.43;3.20;;;;;;;;;;5021966;28;20028;-48
2021/06/04 01:39:33;;;;;;;7.00;3.65;;;;;;;;;;5027495;28;20530;-47
2021/06/04 01:42:00;;;;;;;6.05;3.33;;;;;;;;;;5018627;28;20114;-48
2021/06/04 01:44:45;;;;;;;6.72;3.40;;;;;;;;;;5022717;28;20057;-49
2021/06/04 01:47:12;;;;;;;6.50;3.58;;;;;;;;;;5015441;28;20745;-48
2021/06/04 01:49:40;;;;;;;4.78;3.60;;;;;;;;;;5028967;28;20097;-48
2021/06/04 01:52:10;;;;;;;4.85;3.75;;;;;;;;;;5024958;28;20029;-47
2021/06/04 01:54:43;;;;;;;6.22;3.33;;;;;;;;;;5022020;28;20108;-48
2021/06/04 01:57:12;;;;;;;4.17;3.33;;;;;;;;;;5019493;28;20132;-50
2021/06/04 01:59:41;;;;;;;5.03;3.63;;;;;;;;;;5031239;28;20277;-47
2021/06/04 02:02:08;;;;;;;5.90;3.78;;;;;;;;;;5021895;28;20026;-48
2021/06/04 02:04:39;;;;;;;4.30;2.92;;;;;;;;;;5021092;28;20036;-47
2021/06/04 02:07:09;;;;;;;4.53;3.05;;;;;;;;;;5015070;28;20075;-47
2021/06/04 02:09:36;;;;;;;4.22;2.70;;;;;;;;;;5033749;28;20036;-48
2021/06/04 02:12:03;;;;;;;6.97;3.78;;;;;;;;;;5021166;28;20059;-47
2021/06/04 02:14:31;;;;;;;4.75;3.10;;;;;;;;;;5035603;28;20116;-48
2021/06/04 02:17:09;;;;;;;6.15;3.28;;;;;;;;;;5022324;28;20108;-48
2021/06/04 02:19:47;;;;;;;7.28;3.70;;;;;;;;;;5032364;28;20108;-48
2021/06/04 02:22:29;;;;;;;5.55;3.50;;;;;;;;;;5011082;28;20026;-49
2021/06/04 02:25:03;;;;;;;7.85;2.88;;;;;;;;;;5007191;28;20104;-48
2021/06/04 02:27:33;;;;;;;7.03;3.58;;;;;;;;;;5017876;28;20033;-47
2021/06/04 02:30:07;;;;;;;3.85;3.13;;;;;;;;;;5023815;28;20033;-47
2021/06/04 02:32:40;;;;;;;6.60;3.67;;;;;;;;;;5031425;28;20065;-47
2021/06/04 02:35:15;;;;;;;6.85;3.30;;;;;;;;;;5024877;28;20117;-48
2021/06/04 02:38:02;;;;;;;13.60;3.55;;;;;;;;;;5022565;28;20022;-47
2021/06/04 02:40:30;;;;;;;7.35;3.75;;;;;;;;;;5028230;28;20057;-48
2021/06/04 02:42:58;;;;;;;11.05;3.67;;;;;;;;;;5025852;28;20125;-48
2021/06/04 02:45:45;;;;;;;4.20;3.30;;;;;;;;;;5029346;28;20108;-48
2021/06/04 02:48:16;;;;;;;4.45;3.13;;;;;;;;;;5028688;28;20056;-47
2021/06/04 02:50:45;;;;;;;7.10;3.65;;;;;;;;;;5013939;28;20124;-47
2021/06/04 02:53:14;;;;;;;4.93;3.53;;;;;;;;;;5020007;28;20037;-48
2021/06/04 02:55:45;;;;;;;7.20;4.10;;;;;;;;;;5023884;28;20109;-50
2021/06/04 02:58:10;;;;;;;4.97;3.47;;;;;;;;;;5022586;28;20044;-48
2021/06/04 03:00:41;;;;;;;6.43;3.17;;;;;;;;;;5027381;28;20029;-48
2021/06/04 03:03:08;;;;;;;4.70;3.28;;;;;;;;;;5010710;28;20065;-47
2021/06/04 03:05:37;;;;;;;5.45;3.80;;;;;;;;;;5029641;28;20033;-48
2021/06/04 03:08:03;;;;;;;8.48;3.60;;;;;;;;;;5025348;28;20029;-47
2021/06/04 03:10:32;;;;;;;5.32;3.60;;;;;;;;;;5029071;28;20080;-49
2021/06/04 03:12:58;;;;;;;4.53;3.20;;;;;;;;;;5030307;28;20033;-49
2021/06/04 03:15:28;;;;;;;6.50;3.63;;;;;;;;;;5021371;28;20113;-47
2021/06/04 03:17:57;;;;;;;5.07;3.20;;;;;;;;;;5027072;28;20815;-48
2021/06/04 03:20:27;;;;;;;6.72;3.67;;;;;;;;;;5020629;28;20425;-47
2021/06/04 03:22:53;;;;;;;6.82;3.50;;;;;;;;;;5028698;28;20045;-47
2021/06/04 03:25:22;;;;;;;4.65;3.67;;;;;;;;;;5021030;28;20116;-48
2021/06/04 03:27:48;;;;;;;4.28;3.17;;;;;;;;;;5021821;28;20053;-47
2021/06/04 03:30:14;;;;;;;5.70;3.25;;;;;;;;;;5021769;28;20121;-47
2021/06/04 03:32:40;;;;;;;5.32;3.25;;;;;;;;;;5028267;28;20046;-48
2021/06/04 03:35:07;;;;;;;5.72;3.42;;;;;;;;;;5021386;28;20032;-48
2021/06/04 03:37:35;;;;;;;4.57;3.20;;;;;;;;;;5030482;28;20436;-48
2021/06/04 03:40:03;;;;;;;8.93;3.83;;;;;;;;;;5034047;28;20405;-48
2021/06/04 03:42:30;;;;;;;6.10;3.60;;;;;;;;;;5022311;28;20065;-47
2021/06/04 03:44:56;;;;;;;6.35;3.83;;;;;;;;;;5023941;28;20061;-48
2021/06/04 03:47:23;;;;;;;7.93;4.13;;;;;;;;;;5024854;28;20042;-47
2021/06/04 03:49:49;;;;;;;5.20;3.53;;;;;;;;;;5019242;28;20041;-47
2021/06/04 03:52:16;;;;;;;5.18;3.28;;;;;;;;;;5020110;28;20065;-48
2021/06/04 03:54:44;;;;;;;5.65;3.90;;;;;;;;;;5027974;28;20022;-47
2021/06/04 03:57:12;;;;;;;6.90;3.65;;;;;;;;;;5019447;28;20653;-49
2021/06/04 03:59:38;;;;;;;6.20;3.90;;;;;;;;;;5015712;28;20102;-47
2021/06/04 04:02:06;;;;;;;11.48;4.55;;;;;;;;;;5018660;28;20548;-47
2021/06/04 04:04:32;;;;;;;5.18;3.45;;;;;;;;;;5020120;28;20026;-47
2021/06/04 04:06:58;;;;;;;6.60;4.00;;;;;;;;;;5015839;28;20053;-48
2021/06/04 04:09:24;;;;;;;4.68;3.28;;;;;;;;;;5022255;28;20422;-49
2021/06/04 04:11:52;;;;;;;6.05;4.13;;;;;;;;;;5022096;28;20056;-47
2021/06/04 04:14:19;;;;;;;8.32;4.10;;;;;;;;;;5023266;28;20034;-48
2021/06/04 04:16:45;;;;;;;5.75;4.05;;;;;;;;;;5018948;28;20029;-51
2021/06/04 04:19:12;;;;;;;5.32;3.63;;;;;;;;;;5020260;28;20081;-48
2021/06/04 04:21:38;;;;;;;6.47;4.25;;;;;;;;;;5012386;28;20072;-47
2021/06/04 04:24:10;;;;;;;5.55;3.85;;;;;;;;;;5012619;28;20045;-48
2021/06/04 04:26:36;;;;;;;13.75;7.60;;;;;;;;;;5028364;28;20021;-47
2021/06/04 04:29:03;;;;;;;7.30;4.40;;;;;;;;;;5018285;28;20108;-48
2021/06/04 04:31:31;;;;;;;5.28;3.70;;;;;;;;;;5016963;28;20407;-47
2021/06/04 04:33:57;;;;;;;7.97;3.80;;;;;;;;;;5020259;28;20485;-47
2021/06/04 04:36:24;;;;;;;6.05;3.67;;;;;;;;;;5020175;28;20446;-49
2021/06/04 04:38:50;;;;;;;6.95;3.60;;;;;;;;;;5011180;28;20034;-48
2021/06/04 04:41:16;;;;;;;6.38;3.80;;;;;;;;;;5011721;28;20064;-47
2021/06/04 04:43:45;;;;;;;5.78;3.55;;;;;;;;;;5015802;28;20454;-48
2021/06/04 04:46:11;;;;;;;7.10;3.85;;;;;;;;;;5024227;28;20026;-48
2021/06/04 04:48:38;;;;;;;5.95;3.75;;;;;;;;;;5017217;28;20104;-48
2021/06/04 04:51:05;;;;;;;9.07;3.50;;;;;;;;;;5021883;28;20025;-48
2021/06/04 04:53:31;;;;;;;7.60;4.15;;;;;;;;;;5024484;28;20454;-48
2021/06/04 04:55:57;;;;;;;7.15;4.18;;;;;;;;;;5017274;28;20028;-48
2021/06/04 04:58:23;;;;;;;10.05;4.00;;;;;;;;;;5013585;28;20113;-48
2021/06/04 05:00:50;;;;;;;8.73;4.50;;;;;;;;;;5027134;28;20033;-47
2021/06/04 05:03:18;;;;;;;5.05;3.42;;;;;;;;;;5013418;28;20544;-49
2021/06/04 05:05:44;;;;;;;15.60;4.53;;;;;;;;;;5012121;28;20029;-47
2021/06/04 05:08:10;;;;;;;8.30;5.20;;;;;;;;;;5009139;28;20040;-48
2021/06/04 05:10:36;;;;;;;9.35;4.78;;;;;;;;;;5008036;28;20026;-47
2021/06/04 05:13:04;;;;;;;7.82;5.00;;;;;;;;;;5012350;28;20048;-47
2021/06/04 05:15:31;;;;;;;7.13;4.90;;;;;;;;;;5014093;28;20550;-48
2021/06/04 05:17:57;;;;;;;10.65;5.00;;;;;;;;;;5014677;28;20040;-47
2021/06/04 05:20:24;;;;;;;8.73;4.68;;;;;;;;;;5017413;28;20084;-48
2021/06/04 05:22:50;;;;;;;7.93;5.13;;;;;;;;;;5010238;28;20478;-47
2021/06/04 05:25:17;;;;;;;8.45;5.10;;;;;;;;;;5018740;28;20022;-47
2021/06/04 05:27:45;;;;;;;7.63;5.47;;;;;;;;;;5013673;28;20057;-50
2021/06/04 05:30:14;;;;;;;7.07;5.10;;;;;;;;;;5013926;28;20494;-47
2021/06/04 05:32:40;;;;;;;10.15;5.03;;;;;;;;;;5016634;28;20133;-50
2021/06/04 05:35:08;;;;;;;8.90;5.38;;;;;;;;;;5009967;28;20022;-47
2021/06/04 05:37:34;;;;;;;10.15;5.22;;;;;;;;;;5005061;28;20025;-47
2021/06/04 05:40:00;;;;;;;8.65;5.45;;;;;;;;;;5031610;28;20026;-47
2021/06/04 05:42:26;;;;;;;8.82;5.10;;;;;;;;;;5016773;28;20080;-47
2021/06/04 05:44:52;;;;;;;9.02;6.18;;;;;;;;;;5011651;28;20410;-47
2021/06/04 05:47:18;;;;;;;9.50;6.30;;;;;;;;;;5009425;28;20160;-48
2021/06/04 05:49:44;;;;;;;8.07;5.70;;;;;;;;;;5018185;28;20025;-50
2021/06/04 05:52:11;;;;;;;8.55;5.38;;;;;;;;;;5021382;28;20072;-47
2021/06/04 05:54:39;;;;;;;11.00;5.45;;;;;;;;;;5017834;28;20026;-49
2021/06/04 05:57:06;;;;;;;6.72;5.15;;;;;;;;;;5012972;28;20032;-52
2021/06/04 05:59:32;;;;;;;10.55;5.95;;;;;;;;;;5014408;28;20101;-49
2021/06/04 06:01:58;;;;;;;9.25;5.38;;;;;;;;;;5009693;28;20026;-49
2021/06/04 06:04:24;;;;;;;8.70;5.53;;;;;;;;;;5004490;28;20029;-47
2021/06/04 06:06:54;;;;;;;7.18;5.95;;;;;;;;;;5025281;28;20042;-48
2021/06/04 06:09:23;;;;;;;6.63;5.35;;;;;;;;;;5010805;28;20033;-47
2021/06/04 06:11:49;;;;;;;9.18;5.95;;;;;;;;;;5022971;28;20576;-47
2021/06/04 06:14:16;;;;;;;9.02;6.30;;;;;;;;;;5016236;28;20106;-48
2021/06/04 06:16:42;;;;;;;10.02;6.22;;;;;;;;;;5012458;28;20026;-47
2021/06/04 06:19:09;;;;;;;7.78;5.82;;;;;;;;;;5017764;28;20030;-49
2021/06/04 06:21:35;;;;;;;12.57;5.40;;;;;;;;;;5015699;28;20017;-53
2021/06/04 06:24:01;;;;;;;9.20;6.00;;;;;;;;;;5017189;28;20450;-49
2021/06/04 06:26:30;;;;;;;7.38;5.72;;;;;;;;;;5017650;28;20061;-50
2021/06/04 06:28:56;;;;;;;6.13;4.90;;;;;;;;;;5010350;28;20030;-49
2021/06/04 06:31:24;;;;;;;7.43;5.00;;;;;;;;;;5014344;28;20045;-48
2021/06/04 06:33:52;;;;;;;10.00;5.88;;;;;;;;;;5010472;28;20038;-48
2021/06/04 06:36:20;;;;;;;8.32;5.30;;;;;;;;;;5017977;28;20026;-49
2021/06/04 06:38:48;;;;;;;7.43;5.35;;;;;;;;;;5014479;28;20044;-49
2021/06/04 06:41:15;;;;;;;7.40;5.20;;;;;;;;;;5020872;28;20030;-48
2021/06/04 06:43:44;;;;;;;9.55;5.38;;;;;;;;;;5015900;28;20157;-51
2021/06/04 06:46:11;;;;;;;7.90;5.03;;;;;;;;;;5021157;28;20449;-51
2021/06/04 06:48:37;;;;;;;7.90;5.35;;;;;;;;;;5020094;28;20105;-50
2021/06/04 06:51:04;;;;;;;7.70;5.40;;;;;;;;;;5014010;28;20097;-49
2021/06/04 06:53:30;;;;;;;11.63;6.25;;;;;;;;;;5014178;28;20030;-49
2021/06/04 06:55:57;;;;;;;10.30;5.13;;;;;;;;;;5014925;28;20092;-49
2021/06/04 06:58:23;;;;;;;8.63;5.13;;;;;;;;;;5020974;28;20026;-52
2021/06/04 07:00:50;;;;;;;7.88;5.70;;;;;;;;;;5024234;28;20033;-49
2021/06/04 07:03:18;;;;;;;11.23;5.20;;;;;;;;;;5016742;28;20104;-52
2021/06/04 07:05:44;;;;;;;8.52;5.85;;;;;;;;;;5024981;28;20057;-48
2021/06/04 07:08:11;;;;;;;8.55;5.60;;;;;;;;;;5016806;28;20517;-49
2021/06/04 07:10:38;;;;;;;10.13;5.85;;;;;;;;;;5018511;28;20076;-49
2021/06/04 07:13:14;;;;;;;9.60;5.25;;;;;;;;;;5020184;28;20492;-50
2021/06/04 07:15:41;;;;;;;9.18;5.38;;;;;;;;;;5013649;28;20113;-52
2021/06/04 07:18:08;;;;;;;8.23;5.13;;;;;;;;;;5020125;28;20041;-49
2021/06/04 07:20:35;;;;;;;9.82;5.15;;;;;;;;;;5017003;28;20053;-47
2021/06/04 07:23:01;;;;;;;11.45;5.57;;;;;;;;;;5017973;28;20033;-53
2021/06/04 07:25:30;;;;;;;8.60;5.45;;;;;;;;;;5023646;28;20800;-52
2021/06/04 07:27:56;;;;;;;9.45;5.80;;;;;;;;;;5011862;28;20049;-50
2021/06/04 07:30:25;;;;;;;7.57;4.88;;;;;;;;;;5014808;28;20108;-53
2021/06/04 07:32:52;;;;;;;7.78;5.13;;;;;;;;;;5012548;28;20061;-49
2021/06/04 07:35:19;;;;;;;7.50;5.20;;;;;;;;;;5025444;28;20025;-50
2021/06/04 07:37:45;;;;;;;12.15;5.18;;;;;;;;;;5011875;28;20030;-52
2021/06/04 07:40:13;;;;;;;12.85;5.53;;;;;;;;;;5018221;28;20024;-50
2021/06/04 07:42:40;;;;;;;10.70;5.63;;;;;;;;;;5018380;28;20044;-49
2021/06/04 07:45:07;;;;;;;7.68;5.05;;;;;;;;;;5017299;28;20034;-51
2021/06/04 07:47:34;;;;;;;8.60;4.90;;;;;;;;;;5014316;28;20104;-50
2021/06/04 07:50:00;;;;;;;8.13;4.88;;;;;;;;;;5026806;28;20040;-47
2021/06/04 07:52:26;;;;;;;7.85;5.10;;;;;;;;;;5018805;28;20042;-48
2021/06/04 07:54:58;;;;;;;9.38;5.28;;;;;;;;;;5012929;28;20493;-50
2021/06/04 07:57:24;;;;;;;13.68;5.63;;;;;;;;;;5013147;28;20025;-50
2021/06/04 07:59:50;;;;;;;8.55;5.25;;;;;;;;;;5004495;28;20022;-51
2021/06/04 08:02:16;;;;;;;9.00;5.18;;;;;;;;;;5029963;28;20121;-49
2021/06/04 08:04:42;;;;;;;7.32;5.13;;;;;;;;;;5027645;28;20413;-48
2021/06/04 08:07:08;;;;;;;11.02;4.82;;;;;;;;;;5021203;28;20159;-48
2021/06/04 08:09:34;;;;;;;8.68;5.30;;;;;;;;;;5018624;28;20040;-52
2021/06/04 08:12:01;;;;;;;7.15;4.80;;;;;;;;;;5020191;28;20045;-52
2021/06/04 08:14:28;;;;;;;9.43;5.32;;;;;;;;;;5021541;28;20033;-49
2021/06/04 08:16:54;;;;;;;8.18;5.15;;;;;;;;;;5014891;28;20108;-50
2021/06/04 08:19:21;;;;;;;7.90;5.25;;;;;;;;;;5022574;28;20359;-50
2021/06/04 08:21:49;;;;;;;8.95;4.90;;;;;;;;;;5021156;28;20026;-50
2021/06/04 08:24:19;;;;;;;10.70;5.32;;;;;;;;;;5019966;28;20029;-49
2021/06/04 08:26:45;;;;;;;6.90;4.22;;;;;;;;;;5011607;28;20382;-48
2021/06/04 08:29:12;;;;;;;8.77;5.10;;;;;;;;;;5026094;28;20025;-51
2021/06/04 08:31:38;;;;;;;5.78;4.55;;;;;;;;;;5012798;28;20516;-50
2021/06/04 08:34:04;;;;;;;5.80;4.55;;;;;;;;;;5012608;28;20034;-48
2021/06/04 08:36:32;;;;;;;7.05;4.78;;;;;;;;;;5011628;28;20117;-53
2021/06/04 08:39:01;;;;;;;9.57;5.15;;;;;;;;;;5010412;28;20037;-50
2021/06/04 08:41:45;;;;;;;11.65;5.75;;;;;;;;;;5011359;28;20096;-49
2021/06/04 08:44:19;;;;;;;8.95;4.95;;;;;;;;;;5011799;28;20409;-49
2021/06/04 08:46:53;;;;;;;6.72;4.47;;;;;;;;;;5002439;28;20116;-51
2021/06/04 08:49:27;;;;;;;9.43;4.97;;;;;;;;;;5011465;28;20104;-49
2021/06/04 08:52:02;;;;;;;9.77;4.45;;;;;;;;;;5005109;28;20030;-48
2021/06/04 08:54:41;;;;;;;8.82;4.40;;;;;;;;;;5010240;28;20172;-49
2021/06/04 08:57:10;;;;;;;8.82;4.68;;;;;;;;;;5011569;28;20033;-48
2021/06/04 08:59:38;;;;;;;7.95;4.70;;;;;;;;;;5010993;28;20105;-50
2021/06/04 09:02:04;;;;;;;7.40;5.07;;;;;;;;;;5011981;28;20343;-48
2021/06/04 09:04:34;;;;;;;9.50;4.57;;;;;;;;;;5010359;28;20120;-51
2021/06/04 09:07:05;;;;;;;6.45;4.38;;;;;;;;;;5011095;28;20033;-49
2021/06/04 09:09:45;;;;;;;9.57;5.07;;;;;;;;;;5011646;28;20080;-48
2021/06/04 09:12:17;;;;;;;7.07;4.55;;;;;;;;;;5009755;28;20527;-49
2021/06/04 09:14:43;;;;;;;8.95;4.97;;;;;;;;;;5011771;28;20088;-49
2021/06/04 09:17:18;;;;;;;5.82;4.43;;;;;;;;;;5016854;28;20471;-48
2021/06/04 09:20:03;;;;;;;6.45;4.00;;;;;;;;;;5011548;28;20006;-50
2021/06/04 09:22:30;;;;;;;10.45;4.65;;;;;;;;;;5011047;28;20128;-50
2021/06/04 09:24:56;;;;;;;7.05;4.30;;;;;;;;;;5011070;28;20025;-52
2021/06/04 09:27:35;;;;;;;7.57;4.45;;;;;;;;;;5008275;28;20022;-52
2021/06/04 09:30:09;;;;;;;7.13;4.22;;;;;;;;;;5010753;28;20482;-49
2021/06/04 09:32:35;;;;;;;5.20;4.32;;;;;;;;;;4999407;28;20045;-51
2021/06/04 09:35:27;;;;;;;8.38;4.32;;;;;;;;;;5013714;28;20400;-52
2021/06/04 09:37:54;;;;;;;8.65;4.53;;;;;;;;;;5018131;28;20115;-50
2021/06/04 09:40:29;;;;;;;10.25;4.60;;;;;;;;;;5014928;28;20108;-54
2021/06/04 09:43:04;;;;;;;5.82;4.28;;;;;;;;;;5015077;28;20060;-52
2021/06/04 09:45:37;;;;;;;6.13;4.47;;;;;;;;;;5009474;28;20112;-53
2021/06/04 09:48:30;;;;;;;10.73;4.00;;;;;;;;;;5013632;28;20037;-50
2021/06/04 09:51:06;;;;;;;6.45;4.18;;;;;;;;;;5011668;28;20105;-51
2021/06/04 09:53:32;;;;;;;7.88;4.60;;;;;;;;;;5018201;28;20124;-51
2021/06/04 09:56:06;;;;;;;9.30;4.45;;;;;;;;;;5017097;28;20113;-52
2021/06/04 09:58:47;;;;;;;7.03;3.97;;;;;;;;;;5008803;28;20101;-51
2021/06/04 10:01:15;;;;;;;8.60;4.90;;;;;;;;;;5013801;28;20026;-52
2021/06/04 10:03:41;;;;;;;9.15;4.30;;;;;;;;;;5010474;28;20065;-50
2021/06/04 10:06:07;;;;;;;6.65;4.35;;;;;;;;;;5023537;28;20029;-52
2021/06/04 10:08:47;;;;;;;7.47;4.55;;;;;;;;;;5028059;28;20026;-51
2021/06/04 10:11:33;;;;;;;7.95;4.90;;;;;;;;;;5020392;28;20107;-49
2021/06/04 10:14:12;;;;;;;9.98;3.88;;;;;;;;;;5011625;28;20066;-51
2021/06/04 10:19:29;;;;;;;7.32;4.22;;;;;;;;;;5018093;28;20075;-52
2021/06/04 10:22:13;;;;;;;9.15;4.10;;;;;;;;;;5009416;28;20042;-53
2021/06/04 10:24:41;;;;;;;8.50;4.25;;;;;;;;;;5013262;28;20497;-52
2021/06/04 10:27:09;;;;;;;7.43;4.35;;;;;;;;;;5021593;28;20079;-50
2021/06/04 10:29:35;;;;;;;7.57;4.80;;;;;;;;;;5013697;28;20037;-52
2021/06/04 10:32:19;;;;;;;8.18;4.18;;;;;;;;;;5012649;28;20132;-48
2021/06/04 10:34:44;;;;;;;7.18;3.45;;;;;;;;;;5014780;28;20109;-51
2021/06/04 10:37:23;;;;;;;5.85;3.88;;;;;;;;;;5012887;28;20056;-50
2021/06/04 10:39:58;;;;;;;4.40;3.35;;;;;;;;;;5012853;28;20032;-49
2021/06/04 10:42:24;;;;;;;8.13;3.78;;;;;;;;;;5017814;28;20561;-52
2021/06/04 10:44:56;;;;;;;6.22;4.38;;;;;;;;;;5016063;28;20030;-51
2021/06/04 10:47:41;;;;;;;8.93;4.63;;;;;;;;;;5013871;28;20037;-49
2021/06/04 10:50:13;;;;;;;5.25;4.10;;;;;;;;;;5010437;28;20390;-51
2021/06/04 10:52:46;;;;;;;7.63;3.65;;;;;;;;;;5013622;28;20495;-50
2021/06/04 10:55:12;;;;;;;9.25;3.47;;;;;;;;;;5013425;28;20105;-50
2021/06/04 10:57:41;;;;;;;6.20;3.38;;;;;;;;;;5015468;28;20029;-52
2021/06/04 11:00:14;;;;;;;5.82;3.95;;;;;;;;;;5013110;28;20504;-54
2021/06/04 11:02:59;;;;;;;6.78;3.35;;;;;;;;;;5013387;28;20037;-49
2021/06/04 11:05:31;;;;;;;6.43;4.00;;;;;;;;;;5009473;28;20033;-51
2021/06/04 11:08:01;;;;;;;5.18;3.67;;;;;;;;;;5018465;28;20037;-53
2021/06/04 11:10:38;;;;;;;5.55;3.60;;;;;;;;;;5017954;28;20053;-54
2021/06/04 11:13:23;;;;;;;11.43;5.20;;;;;;;;;;5017630;28;20030;-54
2021/06/04 11:15:57;;;;;;;10.00;4.13;;;;;;;;;;5014431;28;20100;-51
2021/06/04 11:18:29;;;;;;;11.40;4.68;;;;;;;;;;5019546;28;20024;-53
2021/06/04 11:20:57;;;;;;;10.43;4.83;;;;;;;;;;5016344;28;20038;-51
2021/06/04 11:23:44;;;;;;;11.07;5.15;;;;;;;;;;5019987;28;20030;-54
2021/06/04 11:26:31;;;;;;;5.95;3.67;;;;;;;;;;5008473;28;20424;-51
2021/06/04 11:29:06;;;;;;;8.25;4.07;;;;;;;;;;5014947;28;20158;-49
2021/06/04 11:31:52;;;;;;;9.40;4.47;;;;;;;;;;5020429;28;20051;-53
2021/06/04 11:34:40;;;;;;;8.25;4.13;;;;;;;;;;5018422;28;20386;-55
2021/06/04 11:37:08;;;;;;;10.70;4.65;;;;;;;;;;5019752;28;20029;-54
2021/06/04 11:39:39;;;;;;;8.40;3.72;;;;;;;;;;5015119;28;20446;-50
2021/06/04 11:42:11;;;;;;;5.00;3.05;;;;;;;;;;5013982;28;20756;-54
2021/06/04 11:44:43;;;;;;;8.52;3.42;;;;;;;;;;5026444;28;20429;-50
2021/06/04 11:47:17;;;;;;;7.13;3.53;;;;;;;;;;5013503;28;20034;-54
2021/06/04 11:49:56;;;;;;;5.00;3.22;;;;;;;;;;5017458;28;20025;-50
2021/06/04 11:52:29;;;;;;;5.03;3.00;;;;;;;;;;5014870;28;20109;-53
2021/06/04 11:55:14;;;;;;;8.93;3.53;;;;;;;;;;5013133;28;20045;-55
2021/06/04 11:57:45;;;;;;;5.20;3.20;;;;;;;;;;5018214;28;20033;-50
2021/06/04 12:00:27;;;;;;;7.25;3.55;;;;;;;;;;5019478;28;20018;-55
2021/06/04 12:03:05;;;;;;;7.22;3.63;;;;;;;;;;5012102;28;20061;-54
2021/06/04 12:05:39;;;;;;;6.03;3.22;;;;;;;;;;5013506;28;20413;-53
2021/06/04 12:08:17;;;;;;;6.40;3.78;;;;;;;;;;5005087;28;20034;-53
2021/06/04 12:10:49;;;;;;;5.00;3.33;;;;;;;;;;5023328;28;20569;-55
2021/06/04 12:13:30;;;;;;;5.77;3.23;;;;;;;;;;5021665;28;20026;-53
2021/06/04 12:15:56;;;;;;;5.75;3.53;;;;;;;;;;5011124;28;20064;-53
2021/06/04 12:18:30;;;;;;;5.63;3.35;;;;;;;;;;5019528;28;20033;-53
2021/06/04 12:20:56;;;;;;;6.13;3.30;;;;;;;;;;5031442;28;20116;-53
2021/06/04 12:23:46;;;;;;;6.15;3.20;;;;;;;;;;5021598;28;20176;-51
2021/06/04 12:26:30;;;;;;;4.82;2.97;;;;;;;;;;5013569;28;20038;-54
2021/06/04 12:28:56;;;;;;;7.10;3.30;;;;;;;;;;5025978;28;20044;-53
2021/06/04 12:31:22;;;;;;;4.15;3.03;;;;;;;;;;5016661;28;20839;-55
2021/06/04 12:33:50;;;;;;;6.65;2.70;;;;;;;;;;5011762;28;20087;-52
2021/06/04 12:36:35;;;;;;;7.95;3.72;;;;;;;;;;5012950;28;20032;-55
2021/06/04 12:39:19;;;;;;;5.00;3.20;;;;;;;;;;5011907;28;20104;-52
2021/06/04 12:41:45;;;;;;;4.57;2.97;;;;;;;;;;5021210;28;20108;-52
2021/06/04 12:44:12;;;;;;;5.00;2.67;;;;;;;;;;5014458;28;20052;-54
2021/06/04 12:46:39;;;;;;;4.95;3.00;;;;;;;;;;5010197;28;20083;-51
2021/06/04 12:49:08;;;;;;;9.23;3.33;;;;;;;;;;5017647;28;20109;-52
2021/06/04 12:51:40;;;;;;;3.92;3.03;;;;;;;;;;5017879;28;20033;-53
2021/06/04 12:54:08;;;;;;;7.05;2.60;;;;;;;;;;5018115;28;20036;-51
2021/06/04 12:56:49;;;;;;;5.15;2.83;;;;;;;;;;5020240;28;20121;-50
2021/06/04 12:59:17;;;;;;;6.70;3.47;;;;;;;;;;5014433;28;20036;-55
2021/06/04 13:02:13;;;;;;;4.85;2.80;;;;;;;;;;5019105;28;20041;-56
2021/06/04 13:04:44;;;;;;;6.32;3.08;;;;;;;;;;5014942;28;20041;-54
2021/06/04 13:07:30;;;;;;;6.43;3.08;;;;;;;;;;5012650;28;20056;-53
2021/06/04 13:10:01;;;;;;;6.95;2.72;;;;;;;;;;5021086;28;20072;-54
2021/06/04 13:12:31;;;;;;;7.03;3.00;;;;;;;;;;5014811;28;20505;-55
2021/06/04 13:14:57;;;;;;;6.15;2.63;;;;;;;;;;5012647;28;20030;-53
2021/06/04 13:17:32;;;;;;;9.75;3.20;;;;;;;;;;5012682;28;20481;-56
2021/06/04 13:20:07;;;;;;;10.05;3.03;;;;;;;;;;5015681;28;20051;-54
2021/06/04 13:22:33;;;;;;;5.07;2.88;;;;;;;;;;5021604;28;20030;-54
2021/06/04 13:25:10;;;;;;;4.40;2.53;;;;;;;;;;5024919;28;21209;-56
2021/06/04 13:27:36;;;;;;;4.82;2.95;;;;;;;;;;5028186;28;20048;-54
2021/06/04 13:30:07;;;;;;;4.63;2.70;;;;;;;;;;5019872;28;20030;-55
2021/06/04 13:32:35;;;;;;;6.25;2.67;;;;;;;;;;5029544;28;20034;-54
2021/06/04 13:35:23;;;;;;;3.90;2.60;;;;;;;;;;5012582;28;20359;-55
2021/06/04 13:37:55;;;;;;;5.38;2.80;;;;;;;;;;5027464;28;20029;-55
2021/06/04 13:40:23;;;;;;;5.78;2.80;;;;;;;;;;5013382;28;20033;-52
2021/06/04 13:42:54;;;;;;;5.82;2.67;;;;;;;;;;5004018;28;20121;-54
2021/06/04 13:45:22;;;;;;;6.35;2.45;;;;;;;;;;5019849;28;20037;-54
2021/06/04 13:47:49;;;;;;;6.18;2.75;;;;;;;;;;5023281;28;20478;-52
2021/06/04 13:50:32;;;;;;;4.15;2.53;;;;;;;;;;5018093;28;20117;-50
2021/06/04 13:53:04;;;;;;;6.50;2.33;;;;;;;;;;5019632;28;20516;-52
2021/06/04 13:55:31;;;;;;;5.57;2.45;;;;;;;;;;5031961;28;20539;-55
2021/06/04 13:58:16;;;;;;;3.45;2.38;;;;;;;;;;5033940;28;20094;-55
2021/06/04 14:00:42;;;;;;;5.15;2.67;;;;;;;;;;5023279;28;20116;-56
2021/06/04 14:03:11;;;;;;;5.68;2.22;;;;;;;;;;5030681;28;20183;-50
2021/06/04 14:05:37;;;;;;;4.45;2.45;;;;;;;;;;5025623;28;20815;-50
2021/06/04 14:08:13;;;;;;;3.67;2.70;;;;;;;;;;5018040;28;20487;-54
2021/06/04 14:10:55;;;;;;;5.18;2.40;;;;;;;;;;5022097;28;20033;-53
2021/06/04 14:13:23;;;;;;;5.53;2.50;;;;;;;;;;5012599;28;20026;-55
2021/06/04 14:16:01;;;;;;;4.93;2.40;;;;;;;;;;5036043;28;20025;-52
2021/06/04 14:18:32;;;;;;;4.70;2.47;;;;;;;;;;5023809;28;20137;-52
2021/06/04 14:21:00;;;;;;;7.85;2.88;;;;;;;;;;5022333;28;20469;-52
2021/06/04 14:23:30;;;;;;;4.63;2.45;;;;;;;;;;5036739;28;20175;-50
2021/06/04 14:26:15;;;;;;;3.47;2.22;;;;;;;;;;5035665;28;20030;-52
2021/06/04 14:28:41;;;;;;;4.93;2.55;;;;;;;;;;5034666;28;20104;-54
2021/06/04 14:31:08;;;;;;;4.35;2.40;;;;;;;;;;5034166;28;20120;-53
2021/06/04 14:33:39;;;;;;;3.97;2.50;;;;;;;;;;5027818;28;20069;-51
2021/06/04 14:36:05;;;;;;;3.70;2.22;;;;;;;;;;5022020;28;20036;-55
2021/06/04 14:38:34;;;;;;;4.32;2.97;;;;;;;;;;5026283;28;20036;-51
2021/06/04 14:41:11;;;;;;;6.47;2.90;;;;;;;;;;5025202;28;20037;-54
2021/06/04 14:43:38;;;;;;;3.65;2.63;;;;;;;;;;5033691;28;20038;-51
2021/06/04 14:46:11;;;;;;;5.97;2.65;;;;;;;;;;5022918;28;20037;-53
2021/06/04 14:48:37;;;;;;;3.97;2.60;;;;;;;;;;5026956;28;20079;-54
2021/06/04 14:51:03;;;;;;;5.18;2.80;;;;;;;;;;5035071;28;20600;-53
2021/06/04 14:53:32;;;;;;;4.35;2.90;;;;;;;;;;5036156;28;20029;-55
2021/06/04 14:55:58;;;;;;;5.13;3.10;;;;;;;;;;5031523;28;20022;-55
2021/06/04 14:58:24;;;;;;;6.43;3.00;;;;;;;;;;5027022;28;20030;-55
2021/06/04 15:00:50;;;;;;;5.45;2.97;;;;;;;;;;5025566;28;20025;-53
2021/06/04 15:03:17;;;;;;;5.50;3.58;;;;;;;;;;5018791;28;20052;-55